sensor_id;sensor_type;location;lat;lon;timestamp;P1;durP1;ratioP1;P2;durP2;ratioP2
84840;SDS011;75088;53.114;18.040;2024-03-02T00:01:05;56.70;;;30.20;;
84840;SDS011;75088;53.114;18.040;2024-03-02T00:02:21;63.30;;;32.60;;
84840;SDS011;75088;53.114;18.040;2024-03-02T00:03:29;60.00;;;31.30;;
84840;SDS011;75088;53.114;18.040;2024-03-02T00:04:36;58.10;;;30.70;;
84840;SDS011;75088;53.114;18.040;2024-03-02T00:05:43;61.10;;;30.30;;
84840;SDS011;75088;53.114;18.040;2024-03-02T00:06:55;65.00;;;32.60;;
84840;SDS011;75088;53.114;18.040;2024-03-02T00:08:02;63.60;;;31.60;;
84840;SDS011;75088;53.114;18.040;2024-03-02T00:09:12;63.60;;;33.30;;
84840;SDS011;75088;53.114;18.040;2024-03-02T00:10:21;65.80;;;32.50;;
84840;SDS011;75088;53.114;18.040;2024-03-02T00:11:35;61.00;;;33.30;;
84840;SDS011;75088;53.114;18.040;2024-03-02T00:12:43;63.90;;;32.90;;
84840;SDS011;75088;53.114;18.040;2024-03-02T00:13:53;65.80;;;33.30;;
84840;SDS011;75088;53.114;18.040;2024-03-02T00:15:00;63.30;;;33.50;;
84840;SDS011;75088;53.114;18.040;2024-03-02T00:16:10;62.60;;;31.40;;
84840;SDS011;75088;53.114;18.040;2024-03-02T00:17:21;62.90;;;32.50;;
84840;SDS011;75088;53.114;18.040;2024-03-02T00:18:31;59.60;;;30.40;;
84840;SDS011;75088;53.114;18.040;2024-03-02T00:19:39;62.40;;;33.60;;
84840;SDS011;75088;53.114;18.040;2024-03-02T00:20:46;64.70;;;32.30;;
84840;SDS011;75088;53.114;18.040;2024-03-02T00:21:54;63.20;;;32.60;;
84840;SDS011;75088;53.114;18.040;2024-03-02T00:23:02;64.10;;;32.70;;
84840;SDS011;75088;53.114;18.040;2024-03-02T00:24:18;61.40;;;30.80;;
84840;SDS011;75088;53.114;18.040;2024-03-02T00:25:36;65.00;;;30.90;;
84840;SDS011;75088;53.114;18.040;2024-03-02T00:26:46;67.20;;;34.20;;
84840;SDS011;75088;53.114;18.040;2024-03-02T00:27:53;65.10;;;32.70;;
84840;SDS011;75088;53.114;18.040;2024-03-02T00:29:00;66.30;;;34.20;;
84840;SDS011;75088;53.114;18.040;2024-03-02T00:30:08;67.80;;;36.50;;
84840;SDS011;75088;53.114;18.040;2024-03-02T00:31:48;64.30;;;32.50;;
84840;SDS011;75088;53.114;18.040;2024-03-02T00:32:55;64.80;;;32.60;;
84840;SDS011;75088;53.114;18.040;2024-03-02T00:34:04;58.70;;;31.40;;
84840;SDS011;75088;53.114;18.040;2024-03-02T00:35:12;65.50;;;33.90;;
84840;SDS011;75088;53.114;18.040;2024-03-02T00:36:24;71.40;;;36.40;;
84840;SDS011;75088;53.114;18.040;2024-03-02T00:37:31;62.50;;;33.30;;
84840;SDS011;75088;53.114;18.040;2024-03-02T00:38:44;64.60;;;33.50;;
84840;SDS011;75088;53.114;18.040;2024-03-02T00:39:52;64.30;;;31.80;;
84840;SDS011;75088;53.114;18.040;2024-03-02T00:41:00;61.80;;;31.90;;
84840;SDS011;75088;53.114;18.040;2024-03-02T00:42:11;62.70;;;33.40;;
84840;SDS011;75088;53.114;18.040;2024-03-02T00:44:47;61.10;;;31.60;;
84840;SDS011;75088;53.114;18.040;2024-03-02T00:45:54;66.80;;;32.60;;
84840;SDS011;75088;53.114;18.040;2024-03-02T00:47:02;64.10;;;33.80;;
84840;SDS011;75088;53.114;18.040;2024-03-02T00:48:09;63.40;;;31.40;;
84840;SDS011;75088;53.114;18.040;2024-03-02T00:49:19;60.70;;;31.20;;
84840;SDS011;75088;53.114;18.040;2024-03-02T00:50:28;62.50;;;34.30;;
84840;SDS011;75088;53.114;18.040;2024-03-02T00:51:36;70.50;;;34.50;;
84840;SDS011;75088;53.114;18.040;2024-03-02T00:52:45;61.40;;;31.20;;
84840;SDS011;75088;53.114;18.040;2024-03-02T00:53:54;65.30;;;33.40;;
84840;SDS011;75088;53.114;18.040;2024-03-02T00:55:05;59.30;;;31.70;;
84840;SDS011;75088;53.114;18.040;2024-03-02T00:56:13;64.40;;;33.00;;
84840;SDS011;75088;53.114;18.040;2024-03-02T00:57:20;60.50;;;29.90;;
84840;SDS011;75088;53.114;18.040;2024-03-02T00:58:30;65.20;;;32.90;;
84840;SDS011;75088;53.114;18.040;2024-03-02T00:59:37;72.50;;;32.40;;
84840;SDS011;75088;53.114;18.040;2024-03-02T01:00:44;64.60;;;32.10;;
84840;SDS011;75088;53.114;18.040;2024-03-02T01:01:51;70.50;;;33.70;;
84840;SDS011;75088;53.114;18.040;2024-03-02T01:02:58;62.80;;;31.50;;
84840;SDS011;75088;53.114;18.040;2024-03-02T01:04:05;59.70;;;31.10;;
84840;SDS011;75088;53.114;18.040;2024-03-02T01:05:12;63.20;;;32.40;;
84840;SDS011;75088;53.114;18.040;2024-03-02T01:06:20;61.60;;;29.40;;
84840;SDS011;75088;53.114;18.040;2024-03-02T01:07:27;63.60;;;32.50;;
84840;SDS011;75088;53.114;18.040;2024-03-02T01:08:35;66.60;;;32.80;;
84840;SDS011;75088;53.114;18.040;2024-03-02T01:09:42;57.70;;;29.50;;
84840;SDS011;75088;53.114;18.040;2024-03-02T01:10:49;63.20;;;32.20;;
84840;SDS011;75088;53.114;18.040;2024-03-02T01:11:56;61.90;;;31.20;;
84840;SDS011;75088;53.114;18.040;2024-03-02T01:13:03;58.90;;;30.30;;
84840;SDS011;75088;53.114;18.040;2024-03-02T01:14:11;68.90;;;34.20;;
84840;SDS011;75088;53.114;18.040;2024-03-02T01:15:18;65.70;;;33.10;;
84840;SDS011;75088;53.114;18.040;2024-03-02T01:16:25;63.90;;;31.10;;
84840;SDS011;75088;53.114;18.040;2024-03-02T01:17:32;60.70;;;31.80;;
84840;SDS011;75088;53.114;18.040;2024-03-02T01:18:39;62.30;;;31.40;;
84840;SDS011;75088;53.114;18.040;2024-03-02T01:19:47;60.40;;;30.60;;
84840;SDS011;75088;53.114;18.040;2024-03-02T01:20:54;61.60;;;29.60;;
84840;SDS011;75088;53.114;18.040;2024-03-02T01:22:01;56.30;;;30.50;;
84840;SDS011;75088;53.114;18.040;2024-03-02T01:23:09;67.10;;;33.40;;
84840;SDS011;75088;53.114;18.040;2024-03-02T01:24:16;60.30;;;31.50;;
84840;SDS011;75088;53.114;18.040;2024-03-02T01:25:23;64.10;;;30.80;;
84840;SDS011;75088;53.114;18.040;2024-03-02T01:26:30;62.00;;;31.40;;
84840;SDS011;75088;53.114;18.040;2024-03-02T01:27:37;63.10;;;31.70;;
84840;SDS011;75088;53.114;18.040;2024-03-02T01:28:45;66.20;;;33.00;;
84840;SDS011;75088;53.114;18.040;2024-03-02T01:29:52;62.40;;;31.00;;
84840;SDS011;75088;53.114;18.040;2024-03-02T01:31:00;65.70;;;33.10;;
84840;SDS011;75088;53.114;18.040;2024-03-02T01:32:07;69.20;;;51.80;;
84840;SDS011;75088;53.114;18.040;2024-03-02T01:33:14;59.70;;;29.80;;
84840;SDS011;75088;53.114;18.040;2024-03-02T01:34:21;68.50;;;35.40;;
84840;SDS011;75088;53.114;18.040;2024-03-02T01:35:28;60.90;;;31.00;;
84840;SDS011;75088;53.114;18.040;2024-03-02T01:36:36;63.70;;;31.60;;
84840;SDS011;75088;53.114;18.040;2024-03-02T01:37:43;64.10;;;32.30;;
84840;SDS011;75088;53.114;18.040;2024-03-02T01:38:50;67.00;;;32.80;;
84840;SDS011;75088;53.114;18.040;2024-03-02T01:39:57;65.80;;;32.00;;
84840;SDS011;75088;53.114;18.040;2024-03-02T01:41:04;57.90;;;28.80;;
84840;SDS011;75088;53.114;18.040;2024-03-02T01:42:12;62.10;;;31.30;;
84840;SDS011;75088;53.114;18.040;2024-03-02T01:43:20;65.70;;;31.40;;
84840;SDS011;75088;53.114;18.040;2024-03-02T01:44:27;63.40;;;31.20;;
84840;SDS011;75088;53.114;18.040;2024-03-02T01:45:34;57.30;;;29.10;;
84840;SDS011;75088;53.114;18.040;2024-03-02T01:46:42;59.60;;;30.40;;
84840;SDS011;75088;53.114;18.040;2024-03-02T01:47:49;67.40;;;31.90;;
84840;SDS011;75088;53.114;18.040;2024-03-02T01:48:57;63.70;;;32.00;;
84840;SDS011;75088;53.114;18.040;2024-03-02T01:50:04;68.70;;;34.40;;
84840;SDS011;75088;53.114;18.040;2024-03-02T01:51:12;65.10;;;31.50;;
84840;SDS011;75088;53.114;18.040;2024-03-02T01:52:20;61.50;;;30.80;;
84840;SDS011;75088;53.114;18.040;2024-03-02T01:53:27;67.60;;;35.20;;
84840;SDS011;75088;53.114;18.040;2024-03-02T01:54:34;62.90;;;31.90;;
84840;SDS011;75088;53.114;18.040;2024-03-02T01:55:41;65.50;;;31.50;;
84840;SDS011;75088;53.114;18.040;2024-03-02T01:56:49;60.80;;;30.30;;
84840;SDS011;75088;53.114;18.040;2024-03-02T01:57:56;68.40;;;33.70;;
84840;SDS011;75088;53.114;18.040;2024-03-02T01:59:04;64.10;;;31.30;;
84840;SDS011;75088;53.114;18.040;2024-03-02T02:00:12;61.70;;;32.20;;
84840;SDS011;75088;53.114;18.040;2024-03-02T02:01:20;62.80;;;31.40;;
84840;SDS011;75088;53.114;18.040;2024-03-02T02:02:27;65.60;;;35.70;;
84840;SDS011;75088;53.114;18.040;2024-03-02T02:03:34;65.90;;;30.70;;
84840;SDS011;75088;53.114;18.040;2024-03-02T02:04:42;59.70;;;29.80;;
84840;SDS011;75088;53.114;18.040;2024-03-02T02:05:49;64.50;;;31.50;;
84840;SDS011;75088;53.114;18.040;2024-03-02T02:06:56;61.50;;;30.50;;
84840;SDS011;75088;53.114;18.040;2024-03-02T02:08:04;60.60;;;30.30;;
84840;SDS011;75088;53.114;18.040;2024-03-02T02:09:12;67.20;;;33.20;;
84840;SDS011;75088;53.114;18.040;2024-03-02T02:10:19;60.20;;;30.20;;
84840;SDS011;75088;53.114;18.040;2024-03-02T02:11:26;60.40;;;29.70;;
84840;SDS011;75088;53.114;18.040;2024-03-02T02:12:33;60.40;;;29.50;;
84840;SDS011;75088;53.114;18.040;2024-03-02T02:13:41;66.10;;;33.10;;
84840;SDS011;75088;53.114;18.040;2024-03-02T02:14:48;66.40;;;31.30;;
84840;SDS011;75088;53.114;18.040;2024-03-02T02:15:56;58.50;;;31.50;;
84840;SDS011;75088;53.114;18.040;2024-03-02T02:17:11;58.00;;;28.60;;
84840;SDS011;75088;53.114;18.040;2024-03-02T02:18:18;60.80;;;29.40;;
84840;SDS011;75088;53.114;18.040;2024-03-02T02:19:25;59.80;;;29.30;;
84840;SDS011;75088;53.114;18.040;2024-03-02T02:20:33;62.30;;;31.60;;
84840;SDS011;75088;53.114;18.040;2024-03-02T02:21:43;61.10;;;30.60;;
84840;SDS011;75088;53.114;18.040;2024-03-02T02:22:54;62.80;;;30.50;;
84840;SDS011;75088;53.114;18.040;2024-03-02T02:24:02;63.80;;;31.20;;
84840;SDS011;75088;53.114;18.040;2024-03-02T02:25:10;63.90;;;31.10;;
84840;SDS011;75088;53.114;18.040;2024-03-02T02:26:17;68.00;;;33.40;;
84840;SDS011;75088;53.114;18.040;2024-03-02T02:27:24;64.10;;;33.00;;
84840;SDS011;75088;53.114;18.040;2024-03-02T02:28:31;64.70;;;31.10;;
84840;SDS011;75088;53.114;18.040;2024-03-02T02:29:38;60.00;;;29.70;;
84840;SDS011;75088;53.114;18.040;2024-03-02T02:30:46;58.80;;;30.30;;
84840;SDS011;75088;53.114;18.040;2024-03-02T02:31:53;60.60;;;32.70;;
84840;SDS011;75088;53.114;18.040;2024-03-02T02:33:00;58.10;;;29.90;;
84840;SDS011;75088;53.114;18.040;2024-03-02T02:34:07;63.40;;;34.10;;
84840;SDS011;75088;53.114;18.040;2024-03-02T02:35:14;64.20;;;31.30;;
84840;SDS011;75088;53.114;18.040;2024-03-02T02:36:22;59.60;;;30.40;;
84840;SDS011;75088;53.114;18.040;2024-03-02T02:37:29;61.60;;;30.50;;
84840;SDS011;75088;53.114;18.040;2024-03-02T02:38:37;63.50;;;32.20;;
84840;SDS011;75088;53.114;18.040;2024-03-02T02:39:48;53.30;;;28.30;;
84840;SDS011;75088;53.114;18.040;2024-03-02T02:40:55;53.90;;;29.50;;
84840;SDS011;75088;53.114;18.040;2024-03-02T02:42:02;61.20;;;30.90;;
84840;SDS011;75088;53.114;18.040;2024-03-02T02:43:09;60.70;;;28.90;;
84840;SDS011;75088;53.114;18.040;2024-03-02T02:44:17;65.20;;;30.90;;
84840;SDS011;75088;53.114;18.040;2024-03-02T02:45:24;58.80;;;29.00;;
84840;SDS011;75088;53.114;18.040;2024-03-02T02:46:31;68.80;;;33.10;;
84840;SDS011;75088;53.114;18.040;2024-03-02T02:47:37;57.40;;;29.30;;
84840;SDS011;75088;53.114;18.040;2024-03-02T02:48:46;63.20;;;32.00;;
84840;SDS011;75088;53.114;18.040;2024-03-02T02:49:54;58.30;;;29.20;;
84840;SDS011;75088;53.114;18.040;2024-03-02T02:51:02;56.10;;;30.10;;
84840;SDS011;75088;53.114;18.040;2024-03-02T02:52:09;58.60;;;29.80;;
84840;SDS011;75088;53.114;18.040;2024-03-02T02:53:16;57.40;;;28.50;;
84840;SDS011;75088;53.114;18.040;2024-03-02T02:54:23;57.00;;;29.10;;
84840;SDS011;75088;53.114;18.040;2024-03-02T02:55:30;61.20;;;31.30;;
84840;SDS011;75088;53.114;18.040;2024-03-02T02:56:37;59.30;;;29.30;;
84840;SDS011;75088;53.114;18.040;2024-03-02T02:57:45;60.80;;;30.30;;
84840;SDS011;75088;53.114;18.040;2024-03-02T02:58:52;58.50;;;28.80;;
84840;SDS011;75088;53.114;18.040;2024-03-02T02:59:59;55.90;;;28.50;;
84840;SDS011;75088;53.114;18.040;2024-03-02T03:01:14;58.70;;;30.20;;
84840;SDS011;75088;53.114;18.040;2024-03-02T03:02:22;56.50;;;28.00;;
84840;SDS011;75088;53.114;18.040;2024-03-02T03:03:29;50.40;;;26.30;;
84840;SDS011;75088;53.114;18.040;2024-03-02T03:04:36;54.30;;;28.40;;
84840;SDS011;75088;53.114;18.040;2024-03-02T03:05:45;53.90;;;27.90;;
84840;SDS011;75088;53.114;18.040;2024-03-02T03:06:52;61.50;;;30.00;;
84840;SDS011;75088;53.114;18.040;2024-03-02T03:07:59;59.00;;;29.40;;
84840;SDS011;75088;53.114;18.040;2024-03-02T03:09:06;51.50;;;26.80;;
84840;SDS011;75088;53.114;18.040;2024-03-02T03:10:15;57.20;;;30.80;;
84840;SDS011;75088;53.114;18.040;2024-03-02T03:11:22;53.10;;;27.80;;
84840;SDS011;75088;53.114;18.040;2024-03-02T03:12:30;56.10;;;30.90;;
84840;SDS011;75088;53.114;18.040;2024-03-02T03:13:38;55.10;;;27.60;;
84840;SDS011;75088;53.114;18.040;2024-03-02T03:14:45;56.40;;;27.50;;
84840;SDS011;75088;53.114;18.040;2024-03-02T03:15:52;53.50;;;27.70;;
84840;SDS011;75088;53.114;18.040;2024-03-02T03:16:59;54.60;;;28.20;;
84840;SDS011;75088;53.114;18.040;2024-03-02T03:18:07;57.80;;;29.20;;
84840;SDS011;75088;53.114;18.040;2024-03-02T03:19:15;54.20;;;27.70;;
84840;SDS011;75088;53.114;18.040;2024-03-02T03:20:21;57.20;;;29.30;;
84840;SDS011;75088;53.114;18.040;2024-03-02T03:21:28;57.00;;;30.70;;
84840;SDS011;75088;53.114;18.040;2024-03-02T03:22:35;61.00;;;34.20;;
84840;SDS011;75088;53.114;18.040;2024-03-02T03:23:43;57.60;;;29.90;;
84840;SDS011;75088;53.114;18.040;2024-03-02T03:24:50;56.10;;;30.40;;
84840;SDS011;75088;53.114;18.040;2024-03-02T03:25:57;61.50;;;32.20;;
84840;SDS011;75088;53.114;18.040;2024-03-02T03:27:05;55.50;;;27.80;;
84840;SDS011;75088;53.114;18.040;2024-03-02T03:28:12;57.10;;;28.60;;
84840;SDS011;75088;53.114;18.040;2024-03-02T03:29:19;53.80;;;29.90;;
84840;SDS011;75088;53.114;18.040;2024-03-02T03:30:26;56.10;;;28.30;;
84840;SDS011;75088;53.114;18.040;2024-03-02T03:31:33;51.50;;;27.30;;
84840;SDS011;75088;53.114;18.040;2024-03-02T03:32:40;50.20;;;26.10;;
84840;SDS011;75088;53.114;18.040;2024-03-02T03:33:47;53.70;;;27.10;;
84840;SDS011;75088;53.114;18.040;2024-03-02T03:34:55;54.70;;;30.70;;
84840;SDS011;75088;53.114;18.040;2024-03-02T03:36:02;55.70;;;26.90;;
84840;SDS011;75088;53.114;18.040;2024-03-02T03:37:10;56.00;;;28.40;;
84840;SDS011;75088;53.114;18.040;2024-03-02T03:38:17;53.90;;;29.50;;
84840;SDS011;75088;53.114;18.040;2024-03-02T03:39:24;54.60;;;27.10;;
84840;SDS011;75088;53.114;18.040;2024-03-02T03:40:31;53.30;;;28.60;;
84840;SDS011;75088;53.114;18.040;2024-03-02T03:41:38;53.20;;;29.10;;
84840;SDS011;75088;53.114;18.040;2024-03-02T03:42:47;50.10;;;26.50;;
84840;SDS011;75088;53.114;18.040;2024-03-02T03:43:54;46.40;;;25.40;;
84840;SDS011;75088;53.114;18.040;2024-03-02T03:45:01;49.50;;;25.80;;
84840;SDS011;75088;53.114;18.040;2024-03-02T03:46:09;46.50;;;25.80;;
84840;SDS011;75088;53.114;18.040;2024-03-02T03:47:16;52.90;;;28.60;;
84840;SDS011;75088;53.114;18.040;2024-03-02T03:48:24;51.40;;;29.40;;
84840;SDS011;75088;53.114;18.040;2024-03-02T03:49:34;52.90;;;28.90;;
84840;SDS011;75088;53.114;18.040;2024-03-02T03:50:42;49.30;;;27.50;;
84840;SDS011;75088;53.114;18.040;2024-03-02T03:51:49;49.10;;;26.50;;
84840;SDS011;75088;53.114;18.040;2024-03-02T03:52:56;45.30;;;24.10;;
84840;SDS011;75088;53.114;18.040;2024-03-02T03:54:03;48.00;;;25.10;;
84840;SDS011;75088;53.114;18.040;2024-03-02T03:55:12;45.30;;;24.40;;
84840;SDS011;75088;53.114;18.040;2024-03-02T03:56:19;42.60;;;23.60;;
84840;SDS011;75088;53.114;18.040;2024-03-02T03:57:26;45.40;;;25.00;;
84840;SDS011;75088;53.114;18.040;2024-03-02T03:58:33;46.50;;;24.50;;
84840;SDS011;75088;53.114;18.040;2024-03-02T03:59:40;47.20;;;25.70;;
84840;SDS011;75088;53.114;18.040;2024-03-02T04:00:47;46.90;;;26.20;;
84840;SDS011;75088;53.114;18.040;2024-03-02T04:01:54;45.80;;;26.00;;
84840;SDS011;75088;53.114;18.040;2024-03-02T04:03:01;44.10;;;24.90;;
84840;SDS011;75088;53.114;18.040;2024-03-02T04:04:08;43.40;;;24.00;;
84840;SDS011;75088;53.114;18.040;2024-03-02T04:05:16;45.30;;;25.00;;
84840;SDS011;75088;53.114;18.040;2024-03-02T04:06:23;41.00;;;24.30;;
84840;SDS011;75088;53.114;18.040;2024-03-02T04:07:30;40.40;;;22.80;;
84840;SDS011;75088;53.114;18.040;2024-03-02T04:08:37;43.20;;;25.20;;
84840;SDS011;75088;53.114;18.040;2024-03-02T04:09:44;46.30;;;26.70;;
84840;SDS011;75088;53.114;18.040;2024-03-02T04:10:51;40.30;;;24.60;;
84840;SDS011;75088;53.114;18.040;2024-03-02T04:11:58;41.20;;;24.30;;
84840;SDS011;75088;53.114;18.040;2024-03-02T04:13:05;39.50;;;23.40;;
84840;SDS011;75088;53.114;18.040;2024-03-02T04:14:13;40.40;;;23.90;;
84840;SDS011;75088;53.114;18.040;2024-03-02T04:15:20;43.10;;;26.40;;
84840;SDS011;75088;53.114;18.040;2024-03-02T04:16:27;41.70;;;23.20;;
84840;SDS011;75088;53.114;18.040;2024-03-02T04:17:34;41.80;;;23.10;;
84840;SDS011;75088;53.114;18.040;2024-03-02T04:18:41;40.20;;;23.60;;
84840;SDS011;75088;53.114;18.040;2024-03-02T04:19:49;43.80;;;24.40;;
84840;SDS011;75088;53.114;18.040;2024-03-02T04:20:56;39.40;;;22.70;;
84840;SDS011;75088;53.114;18.040;2024-03-02T04:22:03;36.70;;;21.30;;
84840;SDS011;75088;53.114;18.040;2024-03-02T04:23:10;40.00;;;21.60;;
84840;SDS011;75088;53.114;18.040;2024-03-02T04:24:18;41.70;;;23.50;;
84840;SDS011;75088;53.114;18.040;2024-03-02T04:25:25;42.30;;;21.50;;
84840;SDS011;75088;53.114;18.040;2024-03-02T04:26:35;39.40;;;22.60;;
84840;SDS011;75088;53.114;18.040;2024-03-02T04:27:42;41.90;;;23.10;;
84840;SDS011;75088;53.114;18.040;2024-03-02T04:28:50;41.20;;;22.90;;
84840;SDS011;75088;53.114;18.040;2024-03-02T04:29:57;38.20;;;23.40;;
84840;SDS011;75088;53.114;18.040;2024-03-02T04:31:05;35.50;;;21.20;;
84840;SDS011;75088;53.114;18.040;2024-03-02T04:32:12;38.90;;;22.30;;
84840;SDS011;75088;53.114;18.040;2024-03-02T04:33:19;38.00;;;22.80;;
84840;SDS011;75088;53.114;18.040;2024-03-02T04:34:26;38.40;;;22.40;;
84840;SDS011;75088;53.114;18.040;2024-03-02T04:35:33;40.30;;;23.40;;
84840;SDS011;75088;53.114;18.040;2024-03-02T04:36:40;45.10;;;23.90;;
84840;SDS011;75088;53.114;18.040;2024-03-02T04:37:47;48.90;;;29.50;;
84840;SDS011;75088;53.114;18.040;2024-03-02T04:38:55;48.00;;;27.70;;
84840;SDS011;75088;53.114;18.040;2024-03-02T04:40:02;47.60;;;28.50;;
84840;SDS011;75088;53.114;18.040;2024-03-02T04:41:12;47.30;;;26.50;;
84840;SDS011;75088;53.114;18.040;2024-03-02T04:42:20;51.00;;;27.50;;
84840;SDS011;75088;53.114;18.040;2024-03-02T04:43:27;49.00;;;28.60;;
84840;SDS011;75088;53.114;18.040;2024-03-02T04:44:35;41.10;;;25.30;;
84840;SDS011;75088;53.114;18.040;2024-03-02T04:45:43;40.10;;;25.30;;
84840;SDS011;75088;53.114;18.040;2024-03-02T04:46:50;41.00;;;23.00;;
84840;SDS011;75088;53.114;18.040;2024-03-02T04:47:57;40.60;;;24.30;;
84840;SDS011;75088;53.114;18.040;2024-03-02T04:49:04;41.70;;;24.20;;
84840;SDS011;75088;53.114;18.040;2024-03-02T04:50:11;45.30;;;26.80;;
84840;SDS011;75088;53.114;18.040;2024-03-02T04:51:18;50.10;;;30.10;;
84840;SDS011;75088;53.114;18.040;2024-03-02T04:52:26;45.60;;;25.60;;
84840;SDS011;75088;53.114;18.040;2024-03-02T04:53:33;38.40;;;24.10;;
84840;SDS011;75088;53.114;18.040;2024-03-02T04:54:40;41.50;;;26.40;;
84840;SDS011;75088;53.114;18.040;2024-03-02T04:56:01;42.60;;;25.20;;
84840;SDS011;75088;53.114;18.040;2024-03-02T04:57:26;37.00;;;22.60;;
84840;SDS011;75088;53.114;18.040;2024-03-02T04:58:33;42.50;;;23.80;;
84840;SDS011;75088;53.114;18.040;2024-03-02T04:59:41;39.40;;;22.70;;
84840;SDS011;75088;53.114;18.040;2024-03-02T05:00:48;39.20;;;24.60;;
84840;SDS011;75088;53.114;18.040;2024-03-02T05:01:54;37.80;;;23.20;;
84840;SDS011;75088;53.114;18.040;2024-03-02T05:03:03;41.20;;;22.50;;
84840;SDS011;75088;53.114;18.040;2024-03-02T05:04:10;36.50;;;23.70;;
84840;SDS011;75088;53.114;18.040;2024-03-02T05:05:18;40.80;;;24.00;;
84840;SDS011;75088;53.114;18.040;2024-03-02T05:06:25;38.20;;;23.70;;
84840;SDS011;75088;53.114;18.040;2024-03-02T05:07:32;39.40;;;25.60;;
84840;SDS011;75088;53.114;18.040;2024-03-02T05:08:39;39.00;;;24.30;;
84840;SDS011;75088;53.114;18.040;2024-03-02T05:09:46;38.00;;;23.30;;
84840;SDS011;75088;53.114;18.040;2024-03-02T05:10:53;34.20;;;21.70;;
84840;SDS011;75088;53.114;18.040;2024-03-02T05:12:20;36.30;;;21.80;;
84840;SDS011;75088;53.114;18.040;2024-03-02T05:15:07;37.50;;;21.10;;
84840;SDS011;75088;53.114;18.040;2024-03-02T05:16:14;39.40;;;22.00;;
84840;SDS011;75088;53.114;18.040;2024-03-02T05:17:21;39.70;;;24.60;;
84840;SDS011;75088;53.114;18.040;2024-03-02T05:18:29;39.30;;;22.50;;
84840;SDS011;75088;53.114;18.040;2024-03-02T05:19:36;41.60;;;25.40;;
84840;SDS011;75088;53.114;18.040;2024-03-02T05:20:44;39.10;;;23.50;;
84840;SDS011;75088;53.114;18.040;2024-03-02T05:21:52;37.40;;;22.00;;
84840;SDS011;75088;53.114;18.040;2024-03-02T05:22:59;40.20;;;22.50;;
84840;SDS011;75088;53.114;18.040;2024-03-02T05:24:06;42.50;;;23.20;;
84840;SDS011;75088;53.114;18.040;2024-03-02T05:25:14;37.70;;;22.40;;
84840;SDS011;75088;53.114;18.040;2024-03-02T05:26:21;36.60;;;22.60;;
84840;SDS011;75088;53.114;18.040;2024-03-02T05:27:28;39.00;;;22.40;;
84840;SDS011;75088;53.114;18.040;2024-03-02T05:28:37;47.00;;;26.20;;
84840;SDS011;75088;53.114;18.040;2024-03-02T05:29:44;40.40;;;23.70;;
84840;SDS011;75088;53.114;18.040;2024-03-02T05:30:51;41.10;;;23.30;;
84840;SDS011;75088;53.114;18.040;2024-03-02T05:31:58;40.30;;;23.40;;
84840;SDS011;75088;53.114;18.040;2024-03-02T05:33:06;43.50;;;25.10;;
84840;SDS011;75088;53.114;18.040;2024-03-02T05:34:14;42.20;;;25.60;;
84840;SDS011;75088;53.114;18.040;2024-03-02T05:35:21;41.30;;;23.80;;
84840;SDS011;75088;53.114;18.040;2024-03-02T05:36:28;39.40;;;23.40;;
84840;SDS011;75088;53.114;18.040;2024-03-02T05:37:35;43.70;;;26.40;;
84840;SDS011;75088;53.114;18.040;2024-03-02T05:38:43;39.40;;;24.40;;
84840;SDS011;75088;53.114;18.040;2024-03-02T05:39:50;41.70;;;23.20;;
84840;SDS011;75088;53.114;18.040;2024-03-02T05:40:57;37.70;;;24.10;;
84840;SDS011;75088;53.114;18.040;2024-03-02T05:42:04;41.60;;;26.00;;
84840;SDS011;75088;53.114;18.040;2024-03-02T05:43:13;40.10;;;23.80;;
84840;SDS011;75088;53.114;18.040;2024-03-02T05:44:20;40.70;;;24.10;;
84840;SDS011;75088;53.114;18.040;2024-03-02T05:45:27;38.50;;;22.80;;
84840;SDS011;75088;53.114;18.040;2024-03-02T05:46:34;39.20;;;23.60;;
84840;SDS011;75088;53.114;18.040;2024-03-02T05:47:41;37.10;;;23.10;;
84840;SDS011;75088;53.114;18.040;2024-03-02T05:48:48;40.30;;;25.90;;
84840;SDS011;75088;53.114;18.040;2024-03-02T05:49:55;39.50;;;24.20;;
84840;SDS011;75088;53.114;18.040;2024-03-02T05:51:02;37.90;;;23.60;;
84840;SDS011;75088;53.114;18.040;2024-03-02T05:52:10;38.80;;;22.70;;
84840;SDS011;75088;53.114;18.040;2024-03-02T05:53:17;39.00;;;23.50;;
84840;SDS011;75088;53.114;18.040;2024-03-02T05:54:24;44.50;;;25.70;;
84840;SDS011;75088;53.114;18.040;2024-03-02T05:55:31;37.30;;;22.60;;
84840;SDS011;75088;53.114;18.040;2024-03-02T05:56:38;38.90;;;24.00;;
84840;SDS011;75088;53.114;18.040;2024-03-02T05:57:45;41.00;;;26.80;;
84840;SDS011;75088;53.114;18.040;2024-03-02T05:59:06;37.60;;;23.40;;
84840;SDS011;75088;53.114;18.040;2024-03-02T06:00:18;38.50;;;22.70;;
84840;SDS011;75088;53.114;18.040;2024-03-02T06:01:26;40.90;;;25.30;;
84840;SDS011;75088;53.114;18.040;2024-03-02T06:02:34;37.70;;;24.60;;
84840;SDS011;75088;53.114;18.040;2024-03-02T06:03:44;39.10;;;24.60;;
84840;SDS011;75088;53.114;18.040;2024-03-02T06:04:52;41.10;;;27.90;;
84840;SDS011;75088;53.114;18.040;2024-03-02T06:06:01;41.20;;;25.60;;
84840;SDS011;75088;53.114;18.040;2024-03-02T06:07:09;39.80;;;25.20;;
84840;SDS011;75088;53.114;18.040;2024-03-02T06:08:16;38.90;;;24.30;;
84840;SDS011;75088;53.114;18.040;2024-03-02T06:09:23;51.90;;;31.40;;
84840;SDS011;75088;53.114;18.040;2024-03-02T06:10:30;65.60;;;36.00;;
84840;SDS011;75088;53.114;18.040;2024-03-02T06:11:38;48.30;;;28.60;;
84840;SDS011;75088;53.114;18.040;2024-03-02T06:12:46;62.90;;;33.20;;
84840;SDS011;75088;53.114;18.040;2024-03-02T06:13:53;43.80;;;26.70;;
84840;SDS011;75088;53.114;18.040;2024-03-02T06:15:00;48.80;;;31.10;;
84840;SDS011;75088;53.114;18.040;2024-03-02T06:16:08;41.80;;;25.40;;
84840;SDS011;75088;53.114;18.040;2024-03-02T06:17:15;42.10;;;24.60;;
84840;SDS011;75088;53.114;18.040;2024-03-02T06:18:22;39.90;;;23.80;;
84840;SDS011;75088;53.114;18.040;2024-03-02T06:19:29;36.70;;;21.40;;
84840;SDS011;75088;53.114;18.040;2024-03-02T06:20:37;41.30;;;23.70;;
84840;SDS011;75088;53.114;18.040;2024-03-02T06:21:44;42.60;;;26.50;;
84840;SDS011;75088;53.114;18.040;2024-03-02T06:22:51;38.90;;;24.50;;
84840;SDS011;75088;53.114;18.040;2024-03-02T06:23:58;38.70;;;26.20;;
84840;SDS011;75088;53.114;18.040;2024-03-02T06:25:06;35.90;;;22.60;;
84840;SDS011;75088;53.114;18.040;2024-03-02T06:26:14;38.20;;;24.00;;
84840;SDS011;75088;53.114;18.040;2024-03-02T06:27:21;40.90;;;24.20;;
84840;SDS011;75088;53.114;18.040;2024-03-02T06:28:28;37.90;;;23.20;;
84840;SDS011;75088;53.114;18.040;2024-03-02T06:29:35;37.30;;;24.10;;
84840;SDS011;75088;53.114;18.040;2024-03-02T06:30:43;41.40;;;25.50;;
84840;SDS011;75088;53.114;18.040;2024-03-02T06:31:50;38.90;;;23.00;;
84840;SDS011;75088;53.114;18.040;2024-03-02T06:32:57;37.90;;;22.20;;
84840;SDS011;75088;53.114;18.040;2024-03-02T06:34:04;37.10;;;25.10;;
84840;SDS011;75088;53.114;18.040;2024-03-02T06:35:12;40.10;;;25.10;;